Woodgate — D5BX7 — position and weather

sailwx.info

Track history (hours):
 
Tides and Currents Weather Stations Pressure Air Temp Water Temp Dewpoint Dewpoint Depression Visibility Wind Speed Wind Dir Waves Ship Positions

Woodgate

Last reported at 2016-May-29 17:07 UTC. Time now 2016-May-31 16:09 UTC.
Position N 36°17' E 141°28'.

Length 169 m; draft 7.2 m.

Type: Cargo ship. MMSI: 636015627.

Date/timePositionNaut miles runAvg speedWind from/ knotsBaromVisibWave heightAir tempDewpointWater temp
2016-May-29 17:07N 36°17' E 141°28'1 0.9
2016-May-29 16:19N 36°17' E 141°28'1 0.7
2016-May-29 14:28N 36°16' E 141°26'1 0.6
2016-May-29 13:10N 36°16' E 141°25'0 0.5
2016-May-29 12:31N 36°16' E 141°25'0 0.5
2016-May-29 11:31N 36°16' E 141°24'1 0.6
2016-May-29 10:31N 36°16' E 141°24'1 0.6
2016-May-29 09:28N 36°16' E 141°23'1 0.6
2016-May-29 08:07N 36°16' E 141°22'1 0.6
2016-May-29 06:13N 36°16' E 141°20'2 0.7
2016-May-29 03:31N 36°15' E 141°18'1 0.8
2016-May-29 02:25N 36°14' E 141°18'0 0.4
2016-May-29 01:31N 36°14' E 141°18'1 0.1
2016-May-28 17:13N 36°14' E 141°17'1 0.5
2016-May-28 15:19N 36°13' E 141°16'1 0.6
2016-May-28 14:31N 36°13' E 141°16'1 0.6
2016-May-28 13:25N 36°12' E 141°15'2 0.5
2016-May-28 10:28N 36°11' E 141°15'1 0.4
2016-May-28 09:10N 36°10' E 141°16'13 1.4
2016-May-28 00:22N 36°02' E 141°04'1 0.7
2016-May-27 23:31N 36°02' E 141°04'1 0.7
2016-May-27 22:31N 36°02' E 141°05'1 0.8
2016-May-27 21:25N 36°03' E 141°06'1 0.8
2016-May-27 20:31N 36°03' E 141°07'1 0.9
2016-May-27 19:07N 36°04' E 141°08'4 0.8
2016-May-27 14:25N 36°07' E 141°10'0 0.5
2016-May-27 13:28N 36°07' E 141°10'0 0.4
2016-May-27 12:31N 36°08' E 141°10'0 0.5
2016-May-27 11:31N 36°08' E 141°11'1 0.6
2016-May-27 09:31N 36°08' E 141°12'66 1.9
2016-May-25 22:26N 35°07' E 140°43'23 3.7
2016-May-25 16:13N 34°52' E 140°22'2 3.2
2016-May-25 15:32N 34°50' E 140°20'4 2.9
2016-May-25 14:06N 34°47' E 140°17'17 1.4
2016-May-25 01:33N 34°32' E 140°06'3 0.9
2016-May-24 22:21N 34°30' E 140°04'4 0.9
2016-May-24 17:21N 34°27' E 139°60'1 0.9
2016-May-24 16:21N 34°26' E 139°59'1 1.0
2016-May-24 15:12N 34°25' E 139°58'1 1.3
2016-May-24 14:27N 34°25' E 139°57'1 1.3
2016-May-24 13:30N 34°24' E 139°56'1 1.0
2016-May-24 12:15N 34°23' E 139°56'1 0.9
2016-May-24 11:33N 34°22' E 139°55'2 1.9
2016-May-24 10:33N 34°24' E 139°55'1111.5
2016-May-24 09:33N 34°35' E 139°57'7 7.1
2016-May-24 08:32N 34°43' E 139°57'2 2.0
2016-May-24 07:32N 34°41' E 139°56'2 1.8
2016-May-24 06:29N 34°39' E 139°56'1 1.6
2016-May-24 05:32N 34°37' E 139°55'1 1.4
2016-May-24 04:32N 34°36' E 139°55'1 1.0
2016-May-24 03:29N 34°35' E 139°55'1 0.7
2016-May-24 02:29N 34°34' E 139°54'2 1.7
2016-May-24 01:30N 34°34' E 139°52'1212.5
2016-May-24 00:34N 34°44' E 139°45'1312.6
2016-May-23 23:33N 34°57' E 139°42'1212.3
2016-May-23 22:33N 35°08' E 139°45'1111.0
2016-May-23 21:33N 35°19' E 139°43'9 8.7
2016-May-23 20:32N 35°28' E 139°42'0 0.0
2016-May-23 19:32N 35°28' E 139°42'0 0.0
2016-May-23 18:32N 35°28' E 139°42'0 0.0
2016-May-23 17:32N 35°28' E 139°42'0 0.0
2016-May-23 16:32N 35°28' E 139°42'0 0.0
2016-May-23 15:32N 35°28' E 139°42'0 0.0
2016-May-23 14:32N 35°28' E 139°42'0 0.0
2016-May-23 13:32N 35°28' E 139°42'0 0.0
2016-May-23 12:32N 35°28' E 139°42'0 0.0
2016-May-23 11:32N 35°28' E 139°42'0 0.0
2016-May-23 10:32N 35°28' E 139°42'0 0.0
2016-May-23 09:32N 35°28' E 139°42'0 0.0
2016-May-23 08:32N 35°28' E 139°42'0 0.0
2016-May-23 07:32N 35°28' E 139°42'0 0.0
2016-May-23 06:32N 35°28' E 139°42'0 0.0
2016-May-23 05:32N 35°28' E 139°42'0 0.0
2016-May-23 04:32N 35°28' E 139°42'0 0.0
2016-May-23 03:32N 35°28' E 139°42'0 0.0
2016-May-23 02:32N 35°28' E 139°42'0 0.0
2016-May-23 01:32N 35°28' E 139°42'0 0.0
2016-May-23 00:32N 35°28' E 139°42'0 0.4
2016-May-22 23:33N 35°28' E 139°43'3 2.5
2016-May-22 22:32N 35°27' E 139°45'0 0.1
2016-May-22 21:32N 35°27' E 139°45'0 0.1
2016-May-22 20:32N 35°27' E 139°45'0 0.1
2016-May-22 19:32N 35°27' E 139°45'0 0.0
2016-May-22 18:32N 35°27' E 139°45'0 0.1
2016-May-22 17:32N 35°27' E 139°45'0 0.0
2016-May-22 16:32N 35°27' E 139°45'0 0.1
2016-May-22 15:32N 35°27' E 139°45'0 0.0
2016-May-22 14:32N 35°27' E 139°45'0 0.0
2016-May-22 13:32N 35°27' E 139°45'0 0.1
2016-May-22 12:32N 35°27' E 139°45'0 0.0
2016-May-22 11:32N 35°27' E 139°45'0 0.0
2016-May-22 10:32N 35°27' E 139°45'0 0.0
2016-May-22 09:32N 35°27' E 139°45'0 0.1
2016-May-22 08:32N 35°27' E 139°45'0 0.1
2016-May-22 07:29N 35°27' E 139°45'0 0.1
2016-May-22 06:32N 35°27' E 139°45'0 0.0
2016-May-22 05:32N 35°27' E 139°45'0 0.1
2016-May-22 04:32N 35°27' E 139°45'0 0.0
2016-May-22 03:32N 35°27' E 139°45'0 0.0
2016-May-22 02:32N 35°27' E 139°45'0 0.0
2016-May-22 01:32N 35°27' E 139°45'0 0.0
2016-May-22 00:32N 35°27' E 139°45'0 0.0
2016-May-21 23:32N 35°27' E 139°45'0 0.1
2016-May-21 22:32N 35°27' E 139°45'0 0.0
2016-May-21 21:32N 35°27' E 139°45'0 0.0
2016-May-21 20:32N 35°27' E 139°45'0 0.1
2016-May-21 19:32N 35°26' E 139°45'0 0.1
2016-May-21 18:32N 35°27' E 139°45'0 0.1
2016-May-21 17:32N 35°27' E 139°45'0 0.0
2016-May-21 16:29N 35°27' E 139°45'0 0.1
2016-May-21 15:32N 35°27' E 139°45'0 0.1
2016-May-21 14:32N 35°27' E 139°45'0 0.1
2016-May-21 13:32N 35°27' E 139°45'0 0.1
2016-May-21 12:32N 35°27' E 139°45'0 0.0
2016-May-21 11:32N 35°27' E 139°45'0 0.4
2016-May-21 10:34N 35°26' E 139°46'10 9.9
2016-May-21 09:34N 35°32' E 139°55'9 8.6
2016-May-21 08:33N 35°40' E 139°59'0 0.0
2016-May-21 07:32N 35°40' E 139°59'0 0.0
2016-May-21 06:29N 35°40' E 139°59'0 0.0
2016-May-21 05:23N 35°40' E 139°59'0 0.0
2016-May-21 04:29N 35°40' E 139°59'0 0.0
2016-May-21 03:29N 35°40' E 139°59'0 0.0
2016-May-21 02:32N 35°40' E 139°59'0 0.0
2016-May-21 01:26N 35°40' E 139°59'0 0.0
2016-May-21 00:32N 35°40' E 139°59'0 0.0
2016-May-20 23:32N 35°40' E 139°59'0 0.0
2016-May-20 22:29N 35°40' E 139°59'0 0.0
2016-May-20 21:32N 35°40' E 139°59'0 0.0
2016-May-20 20:23N 35°40' E 139°59'0 0.0
2016-May-20 19:32N 35°40' E 139°59'0 0.0
2016-May-20 18:32N 35°40' E 139°59'0 0.0
2016-May-20 17:32N 35°40' E 139°59'0 0.0
2016-May-20 16:32N 35°40' E 139°59'0 0.0
2016-May-20 15:32N 35°40' E 139°59'0 0.0
2016-May-20 14:32N 35°40' E 139°59'0 0.0
2016-May-20 13:32N 35°40' E 139°59'0 0.0
2016-May-20 12:26N 35°40' E 139°59'0 0.0
2016-May-20 11:29N 35°40' E 139°59'0 0.0
2016-May-20 10:29N 35°40' E 139°59'0 0.0
2016-May-20 09:29N 35°40' E 139°59'0 0.0
2016-May-20 08:29N 35°40' E 139°59'0 0.0
2016-May-20 07:29N 35°40' E 139°59'0 0.0
2016-May-20 06:29N 35°40' E 139°59'0 0.0
2016-May-20 04:26N 35°40' E 139°59'0 0.0
2016-May-20 03:29N 35°40' E 139°59'0 0.0
2016-May-20 02:23N 35°40' E 139°59'0 0.0
2016-May-20 01:29N 35°40' E 139°59'0 0.0
2016-May-20 00:32N 35°40' E 139°59'0 0.0
2016-May-19 23:32N 35°40' E 139°59'0 0.0
2016-May-19 22:32N 35°40' E 139°59'0 0.0
2016-May-19 21:29N 35°40' E 139°59'0 0.0
2016-May-19 20:32N 35°40' E 139°59'0 0.0
2016-May-19 19:32N 35°40' E 139°59'0 0.0
2016-May-19 18:32N 35°40' E 139°59'0 0.0
2016-May-19 17:32N 35°40' E 139°59'  
Track history (hours):
 
Tides and Currents Weather Stations Pressure Air Temp Water Temp Dewpoint Dewpoint Depression Visibility Wind Speed Wind Dir Waves Ship Positions

Woodgate

Last reported at 2016-May-29 17:07 UTC. Time now 2016-May-31 16:09 UTC.
Position N 36°17' E 141°28'.

Length 169 m; draft 7.2 m.

Type: Cargo ship. MMSI: 636015627.

Date/timePositionNaut miles runAvg speedWind from/ knotsBaromVisibWave heightAir tempDewpointWater temp
2016-May-29 17:07N 36°17' E 141°28'1 0.9
2016-May-29 16:19N 36°17' E 141°28'1 0.7
2016-May-29 14:28N 36°16' E 141°26'1 0.6
2016-May-29 13:10N 36°16' E 141°25'0 0.5
2016-May-29 12:31N 36°16' E 141°25'0 0.5
2016-May-29 11:31N 36°16' E 141°24'1 0.6
2016-May-29 10:31N 36°16' E 141°24'1 0.6
2016-May-29 09:28N 36°16' E 141°23'1 0.6
2016-May-29 08:07N 36°16' E 141°22'1 0.6
2016-May-29 06:13N 36°16' E 141°20'2 0.7
2016-May-29 03:31N 36°15' E 141°18'1 0.8
2016-May-29 02:25N 36°14' E 141°18'0 0.4
2016-May-29 01:31N 36°14' E 141°18'1 0.1
2016-May-28 17:13N 36°14' E 141°17'1 0.5
2016-May-28 15:19N 36°13' E 141°16'1 0.6
2016-May-28 14:31N 36°13' E 141°16'1 0.6
2016-May-28 13:25N 36°12' E 141°15'2 0.5
2016-May-28 10:28N 36°11' E 141°15'1 0.4
2016-May-28 09:10N 36°10' E 141°16'13 1.4
2016-May-28 00:22N 36°02' E 141°04'1 0.7
2016-May-27 23:31N 36°02' E 141°04'1 0.7
2016-May-27 22:31N 36°02' E 141°05'1 0.8
2016-May-27 21:25N 36°03' E 141°06'1 0.8
2016-May-27 20:31N 36°03' E 141°07'1 0.9
2016-May-27 19:07N 36°04' E 141°08'4 0.8
2016-May-27 14:25N 36°07' E 141°10'0 0.5
2016-May-27 13:28N 36°07' E 141°10'0 0.4
2016-May-27 12:31N 36°08' E 141°10'0 0.5
2016-May-27 11:31N 36°08' E 141°11'1 0.6
2016-May-27 09:31N 36°08' E 141°12'66 1.9
2016-May-25 22:26N 35°07' E 140°43'23 3.7
2016-May-25 16:13N 34°52' E 140°22'2 3.2
2016-May-25 15:32N 34°50' E 140°20'4 2.9
2016-May-25 14:06N 34°47' E 140°17'17 1.4
2016-May-25 01:33N 34°32' E 140°06'3 0.9
2016-May-24 22:21N 34°30' E 140°04'4 0.9
2016-May-24 17:21N 34°27' E 139°60'1 0.9
2016-May-24 16:21N 34°26' E 139°59'1 1.0
2016-May-24 15:12N 34°25' E 139°58'1 1.3
2016-May-24 14:27N 34°25' E 139°57'1 1.3
2016-May-24 13:30N 34°24' E 139°56'1 1.0
2016-May-24 12:15N 34°23' E 139°56'1 0.9
2016-May-24 11:33N 34°22' E 139°55'2 1.9
2016-May-24 10:33N 34°24' E 139°55'1111.5
2016-May-24 09:33N 34°35' E 139°57'7 7.1
2016-May-24 08:32N 34°43' E 139°57'2 2.0
2016-May-24 07:32N 34°41' E 139°56'2 1.8
2016-May-24 06:29N 34°39' E 139°56'1 1.6
2016-May-24 05:32N 34°37' E 139°55'1 1.4
2016-May-24 04:32N 34°36' E 139°55'1 1.0
2016-May-24 03:29N 34°35' E 139°55'1 0.7
2016-May-24 02:29N 34°34' E 139°54'2 1.7
2016-May-24 01:30N 34°34' E 139°52'1212.5
2016-May-24 00:34N 34°44' E 139°45'1312.6
2016-May-23 23:33N 34°57' E 139°42'1212.3
2016-May-23 22:33N 35°08' E 139°45'1111.0
2016-May-23 21:33N 35°19' E 139°43'9 8.7
2016-May-23 20:32N 35°28' E 139°42'0 0.0
2016-May-23 19:32N 35°28' E 139°42'0 0.0
2016-May-23 18:32N 35°28' E 139°42'0 0.0
2016-May-23 17:32N 35°28' E 139°42'0 0.0
2016-May-23 16:32N 35°28' E 139°42'0 0.0
2016-May-23 15:32N 35°28' E 139°42'0 0.0
2016-May-23 14:32N 35°28' E 139°42'0 0.0
2016-May-23 13:32N 35°28' E 139°42'0 0.0
2016-May-23 12:32N 35°28' E 139°42'0 0.0
2016-May-23 11:32N 35°28' E 139°42'0 0.0
2016-May-23 10:32N 35°28' E 139°42'0 0.0
2016-May-23 09:32N 35°28' E 139°42'0 0.0
2016-May-23 08:32N 35°28' E 139°42'0 0.0
2016-May-23 07:32N 35°28' E 139°42'0 0.0
2016-May-23 06:32N 35°28' E 139°42'0 0.0
2016-May-23 05:32N 35°28' E 139°42'0 0.0
2016-May-23 04:32N 35°28' E 139°42'0 0.0
2016-May-23 03:32N 35°28' E 139°42'0 0.0
2016-May-23 02:32N 35°28' E 139°42'0 0.0
2016-May-23 01:32N 35°28' E 139°42'0 0.0
2016-May-23 00:32N 35°28' E 139°42'0 0.4
2016-May-22 23:33N 35°28' E 139°43'3 2.5
2016-May-22 22:32N 35°27' E 139°45'0 0.1
2016-May-22 21:32N 35°27' E 139°45'0 0.1
2016-May-22 20:32N 35°27' E 139°45'0 0.1
2016-May-22 19:32N 35°27' E 139°45'0 0.0
2016-May-22 18:32N 35°27' E 139°45'0 0.1
2016-May-22 17:32N 35°27' E 139°45'0 0.0
2016-May-22 16:32N 35°27' E 139°45'0 0.1
2016-May-22 15:32N 35°27' E 139°45'0 0.0
2016-May-22 14:32N 35°27' E 139°45'0 0.0
2016-May-22 13:32N 35°27' E 139°45'0 0.1
2016-May-22 12:32N 35°27' E 139°45'0 0.0
2016-May-22 11:32N 35°27' E 139°45'0 0.0
2016-May-22 10:32N 35°27' E 139°45'0 0.0
2016-May-22 09:32N 35°27' E 139°45'0 0.1
2016-May-22 08:32N 35°27' E 139°45'0 0.1
2016-May-22 07:29N 35°27' E 139°45'0 0.1
2016-May-22 06:32N 35°27' E 139°45'0 0.0
2016-May-22 05:32N 35°27' E 139°45'0 0.1
2016-May-22 04:32N 35°27' E 139°45'0 0.0
2016-May-22 03:32N 35°27' E 139°45'0 0.0
2016-May-22 02:32N 35°27' E 139°45'0 0.0
2016-May-22 01:32N 35°27' E 139°45'0 0.0
2016-May-22 00:32N 35°27' E 139°45'0 0.0
2016-May-21 23:32N 35°27' E 139°45'0 0.1
2016-May-21 22:32N 35°27' E 139°45'0 0.0
2016-May-21 21:32N 35°27' E 139°45'0 0.0
2016-May-21 20:32N 35°27' E 139°45'0 0.1
2016-May-21 19:32N 35°26' E 139°45'0 0.1
2016-May-21 18:32N 35°27' E 139°45'0 0.1
2016-May-21 17:32N 35°27' E 139°45'0 0.0
2016-May-21 16:29N 35°27' E 139°45'0 0.1
2016-May-21 15:32N 35°27' E 139°45'0 0.1
2016-May-21 14:32N 35°27' E 139°45'0 0.1
2016-May-21 13:32N 35°27' E 139°45'0 0.1
2016-May-21 12:32N 35°27' E 139°45'0 0.0
2016-May-21 11:32N 35°27' E 139°45'0 0.4
2016-May-21 10:34N 35°26' E 139°46'10 9.9
2016-May-21 09:34N 35°32' E 139°55'9 8.6
2016-May-21 08:33N 35°40' E 139°59'0 0.0
2016-May-21 07:32N 35°40' E 139°59'0 0.0
2016-May-21 06:29N 35°40' E 139°59'0 0.0
2016-May-21 05:23N 35°40' E 139°59'0 0.0
2016-May-21 04:29N 35°40' E 139°59'0 0.0
2016-May-21 03:29N 35°40' E 139°59'0 0.0
2016-May-21 02:32N 35°40' E 139°59'0 0.0
2016-May-21 01:26N 35°40' E 139°59'0 0.0
2016-May-21 00:32N 35°40' E 139°59'0 0.0
2016-May-20 23:32N 35°40' E 139°59'0 0.0
2016-May-20 22:29N 35°40' E 139°59'0 0.0
2016-May-20 21:32N 35°40' E 139°59'0 0.0
2016-May-20 20:23N 35°40' E 139°59'0 0.0
2016-May-20 19:32N 35°40' E 139°59'0 0.0
2016-May-20 18:32N 35°40' E 139°59'0 0.0
2016-May-20 17:32N 35°40' E 139°59'0 0.0
2016-May-20 16:32N 35°40' E 139°59'0 0.0
2016-May-20 15:32N 35°40' E 139°59'0 0.0
2016-May-20 14:32N 35°40' E 139°59'0 0.0
2016-May-20 13:32N 35°40' E 139°59'0 0.0
2016-May-20 12:26N 35°40' E 139°59'0 0.0
2016-May-20 11:29N 35°40' E 139°59'0 0.0
2016-May-20 10:29N 35°40' E 139°59'0 0.0
2016-May-20 09:29N 35°40' E 139°59'0 0.0
2016-May-20 08:29N 35°40' E 139°59'0 0.0
2016-May-20 07:29N 35°40' E 139°59'0 0.0
2016-May-20 06:29N 35°40' E 139°59'0 0.0
2016-May-20 04:26N 35°40' E 139°59'0 0.0
2016-May-20 03:29N 35°40' E 139°59'0 0.0
2016-May-20 02:23N 35°40' E 139°59'0 0.0
2016-May-20 01:29N 35°40' E 139°59'0 0.0
2016-May-20 00:32N 35°40' E 139°59'0 0.0
2016-May-19 23:32N 35°40' E 139°59'0 0.0
2016-May-19 22:32N 35°40' E 139°59'0 0.0
2016-May-19 21:29N 35°40' E 139°59'0 0.0
2016-May-19 20:32N 35°40' E 139°59'0 0.0
2016-May-19 19:32N 35°40' E 139°59'0 0.0
2016-May-19 18:32N 35°40' E 139°59'0 0.0
2016-May-19 17:32N 35°40' E 139°59'  

Dump ship's entire track history